Time;durP1;ratioP1;P1;durP2;ratioP2;P2;SDS_P1;SDS_P2;PMS_P1;PMS_P2;Temp;Humidity;BMP_temperature;BMP_pressure;BME280_temperature;BME280_humidity;BME280_pressure;Samples;Min_cycle;Max_cycle;Signal;HPM_P1;HPM_P2
2022/05/12 00:00:38;;;;;;;8.38;2.90;;;;;;;15.91;35.48;100120.70;1706378;84;20998;-64
2022/05/12 00:03:07;;;;;;;6.08;2.47;;;;;;;15.92;35.42;100116.02;1704668;84;21020;-63
2022/05/12 00:05:36;;;;;;;6.92;2.50;;;;;;;15.93;35.37;100118.55;1706153;84;21126;-64
2022/05/12 00:08:05;;;;;;;6.10;2.50;;;;;;;15.93;35.36;100120.46;1704567;84;21035;-65
2022/05/12 00:10:34;;;;;;;5.87;2.60;;;;;;;15.93;35.43;100114.94;1706379;83;20963;-63
2022/05/12 00:13:04;;;;;;;5.40;2.50;;;;;;;15.93;35.51;100125.98;1704675;84;20996;-64
2022/05/12 00:15:34;;;;;;;5.30;2.40;;;;;;;15.93;35.49;100120.46;1706238;84;21138;-64
2022/05/12 00:18:04;;;;;;;5.67;2.40;;;;;;;15.90;35.41;100113.50;1704643;84;21039;-63
2022/05/12 00:20:35;;;;;;;4.58;2.40;;;;;;;15.90;35.46;100120.94;1706477;84;21074;-63
2022/05/12 00:23:16;;;;;;;5.53;2.25;;;;;;;15.89;35.50;100114.58;1704803;84;21036;-64
2022/05/12 00:25:47;;;;;;;6.00;2.17;;;;;;;15.89;35.48;100122.02;1706310;84;20951;-63
2022/05/12 00:28:18;;;;;;;4.85;2.40;;;;;;;15.88;35.54;100117.04;1704585;84;21451;-63
2022/05/12 00:30:47;;;;;;;3.90;2.00;;;;;;;15.89;35.44;100121.48;1706152;84;21011;-63
2022/05/12 00:33:16;;;;;;;5.58;2.67;;;;;;;15.88;35.52;100119.80;1702269;84;21020;-64
2022/05/12 00:35:45;;;;;;;3.77;2.33;;;;;;;15.89;35.38;100117.88;1705657;84;21008;-64
2022/05/12 00:38:14;;;;;;;5.35;2.40;;;;;;;15.88;35.46;100118.42;1681996;84;20979;-63
2022/05/12 00:40:44;;;;;;;5.67;2.20;;;;;;;15.88;35.40;100119.80;1705689;84;21019;-65
2022/05/12 00:43:41;;;;;;;9.78;2.30;;;;;;;15.88;35.62;100121.19;1705623;84;21458;-64
2022/05/12 00:46:18;;;;;;;3.75;2.30;;;;;;;15.86;35.61;100109.53;1705513;84;21429;-64
2022/05/12 00:48:47;;;;;;;6.58;2.30;;;;;;;15.86;35.76;100109.53;1705804;84;20991;-62
2022/05/12 00:51:32;;;;;;;5.67;2.27;;;;;;;15.85;35.77;100110.61;1705692;84;20995;-63
2022/05/12 00:54:05;;;;;;;7.35;3.17;;;;;;;15.84;35.85;100112.53;1705759;84;21006;-63
2022/05/12 00:56:33;;;;;;;5.80;2.42;;;;;;;15.81;35.93;100113.01;1705753;84;21384;-63
2022/05/12 00:59:06;;;;;;;8.73;2.83;;;;;;;15.79;36.23;100112.41;1659760;84;21395;-66
2022/05/12 01:01:34;;;;;;;3.27;2.17;;;;;;;15.79;36.39;100108.80;1705706;84;20999;-63
2022/05/12 01:04:03;;;;;;;3.95;2.17;;;;;;;15.78;36.08;100118.17;1705613;84;20991;-63
2022/05/12 01:06:32;;;;;;;5.78;2.52;;;;;;;15.78;36.29;100115.41;1705801;83;20995;-64
2022/05/12 01:09:00;;;;;;;5.28;2.70;;;;;;;15.75;36.21;100107.59;1705634;84;20983;-65
2022/05/12 01:11:30;;;;;;;5.03;2.60;;;;;;;15.74;36.27;100103.16;1705657;84;21004;-64
2022/05/12 01:14:04;;;;;;;6.17;2.52;;;;;;;15.74;36.86;100108.67;1705643;84;21387;-64
2022/05/12 01:16:47;;;;;;;5.47;2.75;;;;;;;15.72;36.58;100102.55;1682640;84;21043;-63
2022/05/12 01:19:27;;;;;;;5.50;2.60;;;;;;;15.71;36.58;100106.39;1705660;83;20999;-63
2022/05/12 01:21:56;;;;;;;6.08;2.30;;;;;;;15.70;36.83;100105.55;1705642;84;21011;-63
2022/05/12 01:24:33;;;;;;;4.53;2.40;;;;;;;15.70;36.76;100110.23;1705616;83;21387;-64
2022/05/12 01:27:19;;;;;;;4.90;2.27;;;;;;;15.69;36.89;100103.88;1705620;84;21438;-63
2022/05/12 01:29:32;;;;;;;6.40;2.27;;;;;;;15.69;36.76;100104.41;1705533;84;20983;-65
2022/05/12 01:32:01;;;;;;;4.92;2.30;;;;;;;15.68;37.02;100102.73;1705732;83;20987;-64
2022/05/12 01:34:29;;;;;;;5.65;2.35;;;;;;;15.66;37.58;100098.83;1704583;83;21000;-62
2022/05/12 01:36:58;;;;;;;7.65;2.30;;;;;;;15.65;37.69;100094.92;1706140;84;20987;-63
2022/05/12 01:39:27;;;;;;;5.42;2.67;;;;;;;15.62;37.52;100095.39;1704593;84;20993;-64
2022/05/12 01:41:55;;;;;;;5.97;2.42;;;;;;;15.57;37.49;100093.28;1706305;84;21411;-63
2022/05/12 01:44:24;;;;;;;4.72;2.30;;;;;;;15.54;37.70;100095.14;1704579;84;20992;-64
2022/05/12 01:46:53;;;;;;;4.97;2.20;;;;;;;15.51;37.83;100093.70;1706089;84;21150;-64
2022/05/12 01:49:23;;;;;;;7.28;2.30;;;;;;;15.48;37.62;100091.41;1704636;84;21489;-64
2022/05/12 01:51:54;;;;;;;6.15;2.22;;;;;;;15.47;37.49;100089.73;1706169;84;21070;-64
2022/05/12 01:54:23;;;;;;;5.00;2.30;;;;;;;15.46;37.68;100090.80;1704836;84;21018;-65
2022/05/12 01:56:52;;;;;;;4.00;2.20;;;;;;;15.45;37.65;100089.66;1706147;84;20967;-65
2022/05/12 01:59:20;;;;;;;4.90;2.25;;;;;;;15.43;37.70;100087.14;1704746;84;20995;-63
2022/05/12 02:01:49;;;;;;;8.78;2.45;;;;;;;15.43;37.65;100085.76;1706239;84;21023;-62
2022/05/12 02:04:18;;;;;;;9.53;2.50;;;;;;;15.42;37.56;100085.45;1704629;84;21068;-63
2022/05/12 02:06:46;;;;;;;5.22;2.20;;;;;;;15.42;37.14;100084.08;1706433;84;21011;-65
2022/05/12 02:09:16;;;;;;;5.95;2.67;;;;;;;15.42;37.56;100084.08;1704846;84;20984;-64
2022/05/12 02:11:45;;;;;;;4.78;2.72;;;;;;;15.42;37.33;100081.31;1706189;84;20991;-62
2022/05/12 02:14:14;;;;;;;5.40;2.72;;;;;;;15.42;37.64;100083.23;1704706;84;21012;-63
2022/05/12 02:16:42;;;;;;;6.47;2.85;;;;;;;15.41;37.51;100083.77;1706206;84;21411;-63
2022/05/12 02:19:11;;;;;;;4.33;2.40;;;;;;;15.41;37.28;100079.62;1704749;84;20996;-63
2022/05/12 02:21:39;;;;;;;6.00;2.58;;;;;;;15.43;37.51;100087.67;1706305;84;21007;-65
2022/05/12 02:24:08;;;;;;;8.78;3.22;;;;;;;15.42;37.30;100081.85;1704767;84;21000;-66
2022/05/12 02:26:37;;;;;;;6.67;2.10;;;;;;;15.42;37.19;100084.61;1706277;83;20975;-64
2022/05/12 02:29:05;;;;;;;4.85;2.05;;;;;;;15.41;37.14;100082.39;1704694;84;21000;-63
2022/05/12 02:31:36;;;;;;;6.53;2.35;;;;;;;15.42;37.40;100089.59;1706164;84;21043;-64
2022/05/12 02:34:04;;;;;;;6.42;2.65;;;;;;;15.43;37.51;100093.20;1702105;84;21051;-66
2022/05/12 02:36:33;;;;;;;6.45;2.40;;;;;;;15.44;37.35;100089.36;1705670;84;20993;-63
2022/05/12 02:39:02;;;;;;;5.47;2.00;;;;;;;15.44;37.81;100087.98;1705695;83;20967;-63
2022/05/12 02:41:31;;;;;;;8.35;2.60;;;;;;;15.43;37.63;100094.04;1705781;84;20979;-63
2022/05/12 02:43:59;;;;;;;4.92;2.65;;;;;;;15.43;37.22;100091.28;1705709;84;20976;-65
2022/05/12 02:46:28;;;;;;;6.37;2.42;;;;;;;15.43;37.02;100088.52;1705673;83;21034;-64
2022/05/12 02:48:56;;;;;;;5.42;2.20;;;;;;;15.45;37.04;100086.36;1705700;84;21406;-65
2022/05/12 02:51:25;;;;;;;4.22;2.45;;;;;;;15.46;37.21;100089.42;1705762;84;21003;-62
2022/05/12 02:53:54;;;;;;;6.40;2.50;;;;;;;15.47;37.16;100094.41;1705880;84;21015;-62
2022/05/12 02:56:23;;;;;;;3.27;2.08;;;;;;;15.47;37.07;100093.88;1705703;83;21054;-63
2022/05/12 02:58:52;;;;;;;4.87;2.10;;;;;;;15.47;37.04;100088.89;1705859;84;21007;-64
2022/05/12 03:01:21;;;;;;;4.15;2.00;;;;;;;15.46;36.92;100100.47;1705717;84;20976;-63
2022/05/12 03:03:50;;;;;;;5.30;2.20;;;;;;;15.48;36.72;100093.33;1705819;84;21426;-64
2022/05/12 03:06:19;;;;;;;3.83;1.77;;;;;;;15.49;36.88;100097.23;1705677;84;21011;-65
2022/05/12 03:08:49;;;;;;;6.00;2.33;;;;;;;15.50;36.70;100101.68;1649263;86;21400;-64
2022/05/12 03:11:20;;;;;;;4.90;1.95;;;;;;;15.52;36.66;100092.62;1649221;87;21004;-63
2022/05/12 03:13:49;;;;;;;4.35;2.02;;;;;;;15.54;36.56;100091.00;1648156;87;21036;-63
2022/05/12 03:16:18;;;;;;;6.03;2.58;;;;;;;15.53;36.52;100098.44;1699526;84;21059;-63
2022/05/12 03:18:51;;;;;;;7.92;2.58;;;;;;;15.55;36.58;100092.14;1699321;84;21018;-64
2022/05/12 03:21:19;;;;;;;7.05;2.95;;;;;;;15.55;36.46;100097.66;1699325;84;21494;-63
2022/05/12 03:23:47;;;;;;;5.92;3.22;;;;;;;15.57;36.57;100098.81;1699469;84;20980;-64
2022/05/12 03:26:17;;;;;;;6.85;2.90;;;;;;;15.59;36.60;100095.84;1709209;82;21019;-63
2022/05/12 03:28:45;;;;;;;8.43;2.90;;;;;;;15.62;36.46;100094.02;1746383;81;20984;-65
2022/05/12 03:31:14;;;;;;;7.85;3.30;;;;;;;15.63;36.48;100098.45;1746260;82;20999;-64
2022/05/12 03:33:42;;;;;;;7.53;3.27;;;;;;;15.64;36.59;100090.48;1755203;81;21043;-64
2022/05/12 03:36:11;;;;;;;5.95;3.05;;;;;;;15.64;36.48;100088.55;1761469;81;20984;-63
2022/05/12 03:38:41;;;;;;;5.37;3.22;;;;;;;15.67;36.59;100085.86;1761718;81;20952;-63
2022/05/12 03:41:09;;;;;;;8.13;2.98;;;;;;;15.68;36.59;100086.16;1761732;81;20992;-64
2022/05/12 03:46:27;;;;;;;7.75;2.80;;;;;;;15.68;36.58;100088.92;1761561;81;21000;-64
2022/05/12 03:48:55;;;;;;;5.53;2.60;;;;;;;15.69;36.58;100081.77;1761806;81;20976;-63
2022/05/12 03:51:24;;;;;;;7.58;2.85;;;;;;;15.72;36.50;100090.12;1761826;81;20988;-63
2022/05/12 03:53:52;;;;;;;4.67;2.20;;;;;;;15.75;36.47;100088.27;1761790;81;21032;-63
2022/05/12 03:56:21;;;;;;;5.65;2.22;;;;;;;15.78;36.40;100090.55;1761675;81;21003;-62
2022/05/12 03:58:50;;;;;;;6.70;2.47;;;;;;;15.83;36.51;100083.77;1761962;81;21376;-65
2022/05/12 04:01:18;;;;;;;5.90;2.12;;;;;;;15.88;36.45;100090.79;1761687;81;21000;-64
2022/05/12 04:03:48;;;;;;;5.90;2.02;;;;;;;15.93;36.29;100089.53;1761707;81;21035;-62
2022/05/12 04:06:17;;;;;;;8.15;2.00;;;;;;;15.98;36.28;100086.04;1761643;81;20984;-63
2022/05/12 04:08:45;;;;;;;6.37;1.92;;;;;;;16.01;36.23;100082.25;1761757;81;20981;-63
2022/05/12 04:11:14;;;;;;;5.65;1.90;;;;;;;16.07;36.25;100092.34;1761748;81;20976;-64
2022/05/12 04:13:44;;;;;;;4.25;1.98;;;;;;;16.11;36.24;100085.80;1761672;81;21349;-61
2022/05/12 04:16:12;;;;;;;3.67;1.75;;;;;;;16.14;36.13;100079.23;1761793;81;20987;-64
2022/05/12 04:18:41;;;;;;;4.83;1.90;;;;;;;16.18;36.15;100090.11;1761875;81;21459;-63
2022/05/12 04:21:10;;;;;;;6.22;2.15;;;;;;;16.22;36.17;100092.39;1761737;81;20972;-63
2022/05/12 04:23:38;;;;;;;5.28;1.95;;;;;;;16.23;36.23;100085.23;1761725;81;21320;-63
2022/05/12 04:26:07;;;;;;;6.83;2.33;;;;;;;16.25;36.22;100089.14;1761641;81;21364;-63
2022/05/12 04:28:36;;;;;;;10.68;2.33;;;;;;;16.26;36.32;100090.31;1761676;81;21413;-64
2022/05/12 04:31:07;;;;;;;6.08;2.40;;;;;;;16.29;36.36;100091.75;1761665;81;21000;-64
2022/05/12 04:36:23;;;;;;;3.75;2.30;;;;;;;16.32;36.46;100078.28;1759153;81;21011;-63
2022/05/12 04:38:51;;;;;;;5.30;2.40;;;;;;;16.33;36.46;100080.50;1758995;81;21410;-63
2022/05/12 04:41:20;;;;;;;9.35;2.77;;;;;;;16.32;36.46;100084.36;1759024;81;21338;-64
2022/05/12 04:43:48;;;;;;;6.33;2.42;;;;;;;16.33;36.68;100081.34;1759013;81;21438;-63
2022/05/12 04:46:18;;;;;;;6.83;3.10;;;;;;;16.36;36.73;100086.39;1758899;81;20992;-63
2022/05/12 04:48:47;;;;;;;5.20;2.40;;;;;;;16.40;36.74;100085.36;1759000;81;20980;-64
2022/05/12 04:51:15;;;;;;;10.05;2.58;;;;;;;16.43;36.78;100084.33;1758946;81;20988;-63
2022/05/12 04:53:44;;;;;;;6.10;2.77;;;;;;;16.48;36.67;100078.06;1759083;81;20980;-64
2022/05/12 04:56:13;;;;;;;7.50;2.22;;;;;;;16.52;36.70;100083.41;1758943;81;20964;-65
2022/05/12 04:58:41;;;;;;;4.92;2.33;;;;;;;16.60;36.74;100083.56;1759005;81;21428;-64
2022/05/12 05:01:10;;;;;;;6.83;2.50;;;;;;;16.68;36.62;100080.45;1758974;81;20968;-63
2022/05/12 05:03:39;;;;;;;6.95;2.55;;;;;;;16.80;36.55;100080.70;1758960;81;20949;-65
2022/05/12 05:06:09;;;;;;;5.25;1.95;;;;;;;16.91;36.46;100074.85;1758942;81;21380;-64
2022/05/12 05:08:37;;;;;;;8.83;3.25;;;;;;;17.02;36.32;100075.89;1758913;81;21444;-62
2022/05/12 05:11:06;;;;;;;7.72;3.05;;;;;;;17.15;36.34;100076.12;1758955;81;20988;-64
2022/05/12 05:13:35;;;;;;;11.22;2.95;;;;;;;17.34;36.09;100072.88;1758942;81;21356;-62
2022/05/12 05:16:04;;;;;;;7.35;3.00;;;;;;;17.65;35.88;100070.11;1758956;81;20960;-66
2022/05/12 05:18:36;;;;;;;7.15;2.60;;;;;;;17.99;35.63;100069.56;1758933;81;21004;-63
2022/05/12 05:21:05;;;;;;;12.20;2.85;;;;;;;18.40;35.13;100061.84;1758943;81;20964;-64
2022/05/12 05:23:33;;;;;;;6.72;3.15;;;;;;;18.78;34.50;100058.19;1758985;81;20988;-63
2022/05/12 05:26:02;;;;;;;9.98;2.58;;;;;;;19.17;34.05;100058.07;1759008;81;20964;-63
2022/05/12 05:28:32;;;;;;;9.25;2.90;;;;;;;19.46;33.63;100054.45;1758795;81;21004;-64
2022/05/12 05:31:01;;;;;;;7.55;2.70;;;;;;;19.69;33.26;100056.93;1758982;81;21392;-63
2022/05/12 05:33:29;;;;;;;8.78;2.92;;;;;;;19.91;32.99;100047.91;1758853;81;21420;-64
2022/05/12 05:35:58;;;;;;;10.20;2.90;;;;;;;20.08;32.58;100044.13;1760421;81;20996;-65
2022/05/12 05:38:26;;;;;;;9.03;2.55;;;;;;;20.19;32.14;100042.55;1761556;81;21261;-64
2022/05/12 05:40:55;;;;;;;5.70;2.20;;;;;;;20.31;32.08;100042.34;1761630;81;21360;-63
2022/05/12 05:43:26;;;;;;;4.20;2.08;;;;;;;20.46;31.94;100036.03;1761613;81;21705;-63
2022/05/12 05:45:54;;;;;;;8.53;2.15;;;;;;;20.64;31.42;100035.55;1761733;81;20978;-64
2022/05/12 05:48:23;;;;;;;10.60;3.25;;;;;;;20.82;30.98;100025.34;1761596;81;20996;-63
2022/05/12 05:53:39;;;;;;;6.10;2.22;;;;;;;21.25;30.15;100016.24;1761808;81;21403;-64
2022/05/12 05:56:18;;;;;;;5.35;2.40;;;;;;;21.38;30.11;100013.46;1761719;81;20988;-65
2022/05/12 05:58:46;;;;;;;6.85;2.27;;;;;;;21.49;29.72;100006.80;1761742;81;20952;-68
2022/05/12 06:01:16;;;;;;;10.65;2.45;;;;;;;21.61;29.36;100003.73;1761865;81;20980;-66
2022/05/12 06:03:45;;;;;;;8.55;2.67;;;;;;;21.70;29.33;99992.28;1761626;81;20956;-65
2022/05/12 06:06:13;;;;;;;6.60;2.55;;;;;;;21.80;28.85;99995.89;1761540;81;21044;-64
2022/05/12 06:08:42;;;;;;;4.03;2.08;;;;;;;21.86;28.78;99999.50;1761555;81;20952;-63
2022/05/12 06:11:11;;;;;;;5.33;2.30;;;;;;;21.90;28.83;100002.56;1761739;81;20988;-64
2022/05/12 06:13:39;;;;;;;8.08;2.40;;;;;;;21.99;28.44;100007.84;1761615;81;21039;-65
2022/05/12 06:16:08;;;;;;;5.85;2.17;;;;;;;22.14;28.58;99996.70;1761540;81;21396;-66
2022/05/12 06:18:38;;;;;;;5.37;2.45;;;;;;;22.38;28.60;99986.56;1761560;81;20984;-65
2022/05/12 06:21:09;;;;;;;5.78;2.35;;;;;;;22.78;27.72;99991.13;1761615;81;21016;-67
2022/05/12 06:23:38;;;;;;;10.80;2.80;;;;;;;23.07;27.26;99989.02;1738992;81;21403;-64
2022/05/12 06:26:13;;;;;;;9.20;2.37;;;;;;;23.24;27.08;99980.23;1761605;81;21003;-68
2022/05/12 06:28:40;;;;;;;6.35;2.58;;;;;;;23.47;27.05;99982.30;1761286;81;21004;-64
2022/05/12 06:31:07;;;;;;;4.22;2.20;;;;;;;23.83;26.76;99970.79;1761545;81;20945;-63
2022/05/12 06:33:36;;;;;;;5.25;2.17;;;;;;;24.25;26.57;99968.09;1761784;81;20965;-64
2022/05/12 06:36:07;;;;;;;4.62;2.45;;;;;;;24.67;25.72;99965.05;1760315;81;21008;-63
2022/05/12 06:38:38;;;;;;;5.80;2.47;;;;;;;24.98;25.35;99966.06;1758893;81;21382;-64
2022/05/12 06:41:07;;;;;;;6.62;2.58;;;;;;;25.13;25.12;99958.23;1758941;81;21003;-64
2022/05/12 06:43:36;;;;;;;8.30;2.80;;;;;;;25.27;25.24;99955.48;1758846;81;21455;-67
2022/05/12 06:46:05;;;;;;;11.63;3.02;;;;;;;25.51;25.28;99961.00;1758972;81;21037;-67
2022/05/12 06:48:36;;;;;;;6.50;2.33;;;;;;;25.77;24.95;99952.41;1759076;81;21455;-65
2022/05/12 06:51:06;;;;;;;8.10;2.70;;;;;;;25.95;24.67;99949.83;1759038;81;20992;-66
2022/05/12 06:53:35;;;;;;;5.90;2.67;;;;;;;26.10;24.95;99948.14;1759185;81;21043;-64
2022/05/12 06:56:07;;;;;;;11.78;3.62;;;;;;;26.45;24.81;99949.41;1758639;81;21039;-65
2022/05/12 06:58:39;;;;;;;4.58;2.70;;;;;;;26.76;24.47;99943.95;1759195;81;21004;-66
2022/05/12 07:01:11;;;;;;;9.73;3.02;;;;;;;26.89;24.49;99947.30;1759023;81;20988;-65
2022/05/12 07:03:41;;;;;;;5.37;3.12;;;;;;;26.98;24.41;99943.19;1759111;81;21012;-65
2022/05/12 07:06:10;;;;;;;6.28;2.75;;;;;;;27.12;24.28;99946.78;1759029;81;21470;-65
2022/05/12 07:08:41;;;;;;;8.70;3.08;;;;;;;27.29;24.14;99944.09;1758921;81;20988;-65
2022/05/12 07:11:10;;;;;;;7.28;2.67;;;;;;;27.47;23.92;99941.69;1758980;81;20972;-67
2022/05/12 07:13:39;;;;;;;8.93;3.22;;;;;;;27.60;23.81;99940.52;1759115;81;21016;-65
2022/05/12 07:16:08;;;;;;;23.15;3.77;;;;;;;27.73;24.04;99946.09;1758963;81;20984;-64
2022/05/12 07:18:37;;;;;;;9.38;3.12;;;;;;;27.88;23.68;99938.38;1759275;81;20988;-65
2022/05/12 07:26:42;;;;;;;6.55;2.80;;;;;;;27.86;23.80;99941.52;1757944;81;21000;-66
2022/05/12 07:29:18;;;;;;;42.05;5.10;;;;;;;28.02;23.62;99939.96;1759026;81;20980;-66
2022/05/12 07:31:48;;;;;;;9.87;3.10;;;;;;;28.13;23.67;99946.13;1759089;81;21436;-64
2022/05/12 07:34:17;;;;;;;5.42;2.72;;;;;;;28.19;23.76;99937.78;1758970;81;21035;-64
2022/05/12 07:36:53;;;;;;;4.95;3.00;;;;;;;28.09;24.14;99932.45;1760685;81;21039;-65
2022/05/12 07:39:27;;;;;;;6.00;2.80;;;;;;;28.13;24.17;99943.31;1761924;81;21018;-65
2022/05/12 07:41:57;;;;;;;4.40;2.67;;;;;;;28.16;24.49;99935.62;1761676;81;20976;-64
2022/05/12 07:44:34;;;;;;;6.67;2.65;;;;;;;28.28;24.56;99938.67;1761601;81;21455;-65
2022/05/12 07:46:56;;;;;;;12.13;3.33;;;;;;;28.36;24.29;99922.37;1773840;80;21420;-66
2022/05/12 07:49:24;;;;;;;8.03;3.08;;;;;;;28.43;24.46;99919.64;1792588;80;20986;-67
2022/05/12 07:51:54;;;;;;;6.78;3.20;;;;;;;28.56;24.72;99922.90;1792935;80;20994;-65
2022/05/12 07:54:23;;;;;;;8.23;2.80;;;;;;;28.76;24.88;99918.06;1792764;80;20970;-65
2022/05/12 07:56:51;;;;;;;10.93;3.10;;;;;;;28.97;24.44;99919.09;1792863;79;21010;-64
2022/05/12 07:59:23;;;;;;;7.40;3.15;;;;;;;29.11;24.40;99911.03;1792881;80;20966;-65
2022/05/12 08:01:52;;;;;;;8.78;3.55;;;;;;;29.29;24.01;99905.07;1792847;79;21390;-63
2022/05/12 08:04:20;;;;;;;7.72;3.00;;;;;;;29.42;23.96;99903.22;1792831;80;20982;-64
2022/05/12 08:06:50;;;;;;;9.73;3.00;;;;;;;29.53;23.75;99900.31;1792753;79;20946;-66
2022/05/12 08:09:19;;;;;;;8.50;3.25;;;;;;;29.63;23.69;99894.88;1792994;79;21383;-65
2022/05/12 08:11:48;;;;;;;8.25;3.30;;;;;;;29.70;23.66;99886.72;1792779;80;20950;-64
2022/05/12 08:14:16;;;;;;;7.40;2.80;;;;;;;29.78;23.86;99880.79;1792489;79;20986;-66
2022/05/12 08:16:46;;;;;;;10.03;3.90;;;;;;;29.97;23.36;99876.99;1792747;80;21001;-64
2022/05/12 08:19:15;;;;;;;8.38;3.58;;;;;;;29.94;23.77;99883.33;1792816;79;21441;-65
2022/05/12 08:21:43;;;;;;;11.53;3.83;;;;;;;30.04;23.79;99887.21;1792864;80;20974;-66
2022/05/12 08:24:12;;;;;;;7.67;3.17;;;;;;;30.12;23.79;99882.09;1792768;79;21008;-65
2022/05/12 08:26:40;;;;;;;10.05;3.85;;;;;;;30.14;23.83;99875.52;1792768;80;21004;-64
2022/05/12 08:29:10;;;;;;;6.40;3.20;;;;;;;30.16;24.00;99890.72;1774683;79;21431;-65
2022/05/12 08:31:39;;;;;;;6.58;3.50;;;;;;;30.17;24.07;99883.90;1782648;80;20939;-61
2022/05/12 08:34:08;;;;;;;7.28;3.30;;;;;;;30.16;24.15;99881.66;1787512;79;20996;-66
2022/05/12 08:36:37;;;;;;;7.25;3.33;;;;;;;30.21;24.25;99882.88;1783299;80;21043;-67
2022/05/12 08:39:06;;;;;;;9.38;3.42;;;;;;;30.27;24.16;99869.38;1788612;80;20964;-65
2022/05/12 08:41:52;;;;;;;12.37;3.33;;;;;;;30.35;23.94;99868.48;1792817;80;21424;-65
2022/05/12 08:44:20;;;;;;;8.10;3.33;;;;;;;30.36;24.14;99860.25;1761408;81;21016;-64
2022/05/12 08:46:58;;;;;;;5.92;3.35;;;;;;;30.49;24.00;99857.73;1761523;81;20988;-63
2022/05/12 08:49:32;;;;;;;8.35;3.37;;;;;;;30.65;23.83;99857.19;1761543;81;21042;-64
2022/05/12 08:52:28;;;;;;;6.35;3.40;;;;;;;30.59;23.67;99853.16;1786000;80;21372;-65
2022/05/12 08:55:14;;;;;;;4.00;3.12;;;;;;;30.47;23.73;99862.09;1792818;80;20996;-64
2022/05/12 08:58:08;;;;;;;8.80;3.40;;;;;;;30.52;23.87;99851.98;1792798;80;21004;-63
2022/05/12 09:00:48;;;;;;;7.67;3.72;;;;;;;30.41;24.00;99837.43;1792525;80;21444;-64
2022/05/12 09:03:39;;;;;;;6.65;3.27;;;;;;;30.10;24.34;99851.11;1769692;80;20967;-63
2022/05/12 09:06:22;;;;;;;12.53;3.42;;;;;;;29.90;24.60;99844.17;1792772;79;21004;-64
2022/05/12 09:09:11;;;;;;;7.78;3.67;;;;;;;29.71;24.84;99843.19;1784483;79;20980;-64
2022/05/12 09:11:53;;;;;;;11.60;3.65;;;;;;;29.56;25.18;99840.93;1792695;80;21028;-64
2022/05/12 09:14:34;;;;;;;8.48;3.40;;;;;;;29.50;25.31;99844.52;1792705;79;21443;-64
2022/05/12 09:17:03;;;;;;;11.80;3.70;;;;;;;29.43;25.58;99836.30;1792877;79;21004;-64
2022/05/12 09:19:32;;;;;;;9.35;3.83;;;;;;;29.33;25.68;99846.78;1790487;80;20983;-65
2022/05/12 09:22:00;;;;;;;7.45;3.70;;;;;;;29.23;25.65;99827.94;1790474;80;20995;-65
2022/05/12 09:24:29;;;;;;;9.93;4.37;;;;;;;29.08;25.81;99815.20;1790434;80;20995;-63
2022/05/12 09:27:12;;;;;;;7.45;4.55;;;;;;;29.01;26.10;99820.52;1790697;79;21038;-65
2022/05/12 09:29:48;;;;;;;9.20;3.65;;;;;;;28.91;26.25;99807.60;1790600;80;21360;-65
2022/05/12 09:32:26;;;;;;;6.20;3.85;;;;;;;28.77;26.36;99808.92;1790614;80;20998;-63
2022/05/12 09:35:12;;;;;;;10.10;4.45;;;;;;;28.68;26.47;99804.12;1790619;80;21015;-65
2022/05/12 09:37:43;;;;;;;10.03;3.70;;;;;;;28.68;26.65;99805.52;1792185;79;21018;-66
2022/05/12 09:40:34;;;;;;;7.10;4.10;;;;;;;28.70;26.58;99805.19;1790513;80;20988;-65
2022/05/12 09:43:20;;;;;;;10.13;4.85;;;;;;;28.58;26.65;99793.15;1790094;80;21020;-60
2022/05/12 09:46:10;;;;;;;11.78;3.83;;;;;;;28.43;26.57;99802.10;1789571;79;20992;-66
2022/05/12 09:48:40;;;;;;;11.93;3.87;;;;;;;28.40;27.01;99806.41;1789581;80;21389;-66
2022/05/12 09:51:33;;;;;;;6.85;3.75;;;;;;;28.36;26.96;99788.51;1789874;80;21000;-66
2022/05/12 09:54:25;;;;;;;6.75;3.65;;;;;;;28.32;26.89;99773.42;1790088;79;21400;-66
2022/05/12 09:57:15;;;;;;;24.92;6.08;;;;;;;28.34;27.03;99773.92;1790360;80;21088;-66
2022/05/12 09:59:53;;;;;;;11.00;6.85;;;;;;;28.32;26.79;99783.28;1790181;80;21000;-66
2022/05/12 10:08:24;;;;;;;28.67;5.83;;;;;;;28.28;27.21;99754.11;1791109;80;20996;-64
2022/05/12 10:11:00;;;;;;;13.88;4.20;;;;;;;28.36;27.13;99760.91;1790228;79;20999;-64
2022/05/12 10:13:43;;;;;;;7.35;3.80;;;;;;;28.43;26.80;99752.78;1789943;80;21145;-66
2022/05/12 10:16:14;;;;;;;8.78;3.80;;;;;;;28.45;26.65;99763.72;1789852;80;21080;-66
2022/05/12 10:18:55;;;;;;;8.50;3.95;;;;;;;28.41;26.57;99756.52;1789935;80;21446;-66
2022/05/12 10:21:32;;;;;;;9.43;3.40;;;;;;;28.36;26.27;99756.10;1758910;80;21000;-64
2022/05/12 10:24:39;;;;;;;8.20;3.60;;;;;;;28.24;26.35;99743.26;1758959;81;20962;-66
2022/05/12 10:27:14;;;;;;;8.73;3.60;;;;;;;28.15;26.30;99756.48;1758876;81;21414;-65
2022/05/12 10:30:00;;;;;;;9.90;3.92;;;;;;;28.14;26.50;99744.13;1758900;80;20968;-64
2022/05/12 10:32:43;;;;;;;11.65;3.80;;;;;;;28.09;26.84;99736.09;1762780;79;21014;-65
2022/05/12 10:35:28;;;;;;;11.38;4.30;;;;;;;28.05;26.98;99731.45;1790123;80;21385;-64
2022/05/12 10:38:43;;;;;;;12.63;4.08;;;;;;;28.07;27.19;99730.55;1765745;81;21004;-65
2022/05/12 10:41:33;;;;;;;15.63;4.40;;;;;;;28.10;27.03;99726.48;1756500;81;21034;-65
2022/05/12 10:44:30;;;;;;;9.88;4.30;;;;;;;28.13;26.78;99719.94;1732105;82;20995;-66
2022/05/12 10:47:09;;;;;;;13.62;4.25;;;;;;;28.18;26.94;99709.92;1770933;81;21011;-66
2022/05/12 10:49:52;;;;;;;7.33;3.80;;;;;;;28.18;26.79;99713.56;1776930;81;22101;-67
2022/05/12 10:52:32;;;;;;;8.10;3.92;;;;;;;28.20;27.07;99718.86;1746083;81;20972;-67
2022/05/12 10:55:29;;;;;;;19.07;4.28;;;;;;;28.23;26.97;99704.11;1746080;81;21022;-67
2022/05/12 10:58:29;;;;;;;16.45;4.78;;;;;;;28.24;26.80;99708.62;1746178;81;20972;-66
2022/05/12 11:01:20;;;;;;;12.55;4.25;;;;;;;28.21;26.93;99701.63;1746154;81;21442;-68
2022/05/12 11:04:08;;;;;;;10.45;3.90;;;;;;;28.20;26.77;99683.06;1746174;81;21019;-66
2022/05/12 11:06:56;;;;;;;13.48;3.75;;;;;;;28.25;26.77;99675.89;1746067;82;20997;-66
2022/05/12 11:09:28;;;;;;;;;;;;;;;28.27;26.76;99668.52;1743757;80;20996;-67
2022/05/12 11:12:01;;;;;;;5.78;3.65;;;;;;;28.31;26.79;99677.95;1792786;80;20184;-66
2022/05/12 11:14:40;;;;;;;59.60;6.83;;;;;;;28.35;26.88;99687.39;1792719;79;21015;-67
2022/05/12 11:17:36;;;;;;;14.83;4.90;;;;;;;28.38;26.73;99681.09;1792789;79;20995;-64
2022/05/12 11:20:23;;;;;;;14.40;4.70;;;;;;;28.35;26.74;99657.23;1793999;79;21019;-68
2022/05/12 11:23:31;;;;;;;10.05;4.72;;;;;;;28.33;26.73;99659.55;1792684;80;20967;-62
2022/05/12 11:26:45;;;;;;;9.63;3.75;;;;;;;28.35;26.80;99662.03;1793113;80;20971;-62
2022/05/12 11:29:43;;;;;;;13.83;3.98;;;;;;;28.35;26.83;99653.58;1792863;80;21003;-63
2022/05/12 11:32:47;;;;;;;14.33;5.83;;;;;;;28.31;26.83;99642.15;1792928;80;21014;-62
2022/05/12 11:35:21;;;;;;;13.20;3.65;;;;;;;28.28;26.81;99639.17;1763435;81;21446;-64
2022/05/12 11:38:02;;;;;;;8.08;3.40;;;;;;;28.22;26.93;99630.03;1788875;79;21026;-63
2022/05/12 11:40:52;;;;;;;14.55;7.17;;;;;;;28.22;27.03;99630.03;1792761;79;21019;-63
2022/05/12 11:46:41;;;;;;;11.08;4.00;;;;;;;28.29;26.74;99635.20;1776745;81;20976;-63
2022/05/12 11:49:50;;;;;;;15.88;4.10;;;;;;;28.29;26.67;99616.88;1776727;81;20999;-62
2022/05/12 11:52:49;;;;;;;12.75;4.10;;;;;;;28.27;26.80;99630.47;1769938;81;20996;-62
2022/05/12 11:55:35;;;;;;;11.22;3.70;;;;;;;28.29;26.67;99616.30;1776921;80;21000;-63
2022/05/12 11:58:12;;;;;;;9.80;3.37;;;;;;;28.33;26.55;99606.59;1774773;80;21435;-63
2022/05/12 12:00:53;;;;;;;11.70;3.98;;;;;;;28.33;26.62;99598.14;1776876;80;21055;-63
2022/05/12 12:03:29;;;;;;;9.20;3.50;;;;;;;28.34;26.55;99594.16;1776981;80;20980;-64
2022/05/12 12:06:04;;;;;;;8.33;4.08;;;;;;;28.37;26.47;99594.89;1776787;80;20976;-63
2022/05/12 12:08:45;;;;;;;9.10;3.67;;;;;;;28.40;26.46;99593.64;1779133;80;21004;-62
2022/05/12 12:11:20;;;;;;;10.68;3.65;;;;;;;28.43;26.37;99576.64;1792759;80;21018;-62
2022/05/12 12:13:57;;;;;;;9.38;3.70;;;;;;;28.40;26.50;99573.92;1792844;79;21020;-63
2022/05/12 12:16:30;;;;;;;11.85;3.45;;;;;;;28.41;26.51;99579.80;1792698;80;20956;-64
2022/05/12 12:19:04;;;;;;;9.95;3.55;;;;;;;28.44;26.35;99560.56;1792602;80;21015;-63